sensor_id;sensor_type;location;lat;lon;timestamp;P1;durP1;ratioP1;P2;durP2;ratioP2
22378;SDS011;11357;49.990;7.370;2023-01-01T00:00:46;141.80;;;133.53;;
22378;SDS011;11357;49.990;7.370;2023-01-01T00:03:12;57.47;;;53.67;;
22378;SDS011;11357;49.990;7.370;2023-01-01T00:05:38;17.50;;;16.10;;
22378;SDS011;11357;49.990;7.370;2023-01-01T00:08:04;12.03;;;8.63;;
22378;SDS011;11357;49.990;7.370;2023-01-01T00:10:30;6.47;;;4.83;;
22378;SDS011;11357;49.990;7.370;2023-01-01T00:12:56;8.43;;;5.27;;
22378;SDS011;11357;49.990;7.370;2023-01-01T00:15:23;7.43;;;6.37;;
22378;SDS011;11357;49.990;7.370;2023-01-01T00:17:50;10.83;;;4.70;;
22378;SDS011;11357;49.990;7.370;2023-01-01T00:20:15;6.80;;;4.57;;
22378;SDS011;11357;49.990;7.370;2023-01-01T00:22:41;5.30;;;4.83;;
22378;SDS011;11357;49.990;7.370;2023-01-01T00:25:07;5.43;;;2.60;;
22378;SDS011;11357;49.990;7.370;2023-01-01T00:27:35;6.90;;;3.73;;
22378;SDS011;11357;49.990;7.370;2023-01-01T00:30:00;10.93;;;10.03;;
22378;SDS011;11357;49.990;7.370;2023-01-01T00:32:26;61.93;;;58.47;;
22378;SDS011;11357;49.990;7.370;2023-01-01T00:34:52;226.87;;;211.27;;
22378;SDS011;11357;49.990;7.370;2023-01-01T00:37:17;429.13;;;394.00;;
22378;SDS011;11357;49.990;7.370;2023-01-01T00:39:43;601.67;;;522.77;;
22378;SDS011;11357;49.990;7.370;2023-01-01T00:42:09;686.10;;;551.43;;
22378;SDS011;11357;49.990;7.370;2023-01-01T00:44:34;1786.40;;;836.80;;
22378;SDS011;11357;49.990;7.370;2023-01-01T00:47:00;1999.90;;;999.90;;
22378;SDS011;11357;49.990;7.370;2023-01-01T00:49:26;1781.10;;;897.97;;
22378;SDS011;11357;49.990;7.370;2023-01-01T00:51:52;1999.90;;;999.90;;
22378;SDS011;11357;49.990;7.370;2023-01-01T00:54:17;1457.90;;;651.10;;
22378;SDS011;11357;49.990;7.370;2023-01-01T00:56:43;1927.87;;;856.23;;
22378;SDS011;11357;49.990;7.370;2023-01-01T00:59:09;1999.90;;;999.90;;
22378;SDS011;11357;49.990;7.370;2023-01-01T01:01:35;1999.90;;;999.90;;
22378;SDS011;11357;49.990;7.370;2023-01-01T01:04:03;1999.90;;;999.90;;
22378;SDS011;11357;49.990;7.370;2023-01-01T01:06:29;1999.90;;;878.70;;
22378;SDS011;11357;49.990;7.370;2023-01-01T01:08:55;1999.90;;;999.90;;
22378;SDS011;11357;49.990;7.370;2023-01-01T01:11:22;1999.90;;;999.90;;
22378;SDS011;11357;49.990;7.370;2023-01-01T01:13:50;1999.90;;;999.90;;
22378;SDS011;11357;49.990;7.370;2023-01-01T01:16:27;1592.10;;;761.23;;
22378;SDS011;11357;49.990;7.370;2023-01-01T01:18:57;1999.90;;;999.90;;
22378;SDS011;11357;49.990;7.370;2023-01-01T01:21:24;1999.90;;;999.90;;
22378;SDS011;11357;49.990;7.370;2023-01-01T01:23:51;1999.90;;;999.90;;
22378;SDS011;11357;49.990;7.370;2023-01-01T01:26:21;1999.90;;;999.90;;
22378;SDS011;11357;49.990;7.370;2023-01-01T01:28:49;1999.90;;;999.90;;
22378;SDS011;11357;49.990;7.370;2023-01-01T01:31:19;1999.90;;;999.90;;
22378;SDS011;11357;49.990;7.370;2023-01-01T01:33:46;1999.90;;;999.90;;
22378;SDS011;11357;49.990;7.370;2023-01-01T01:36:13;1630.87;;;774.07;;
22378;SDS011;11357;49.990;7.370;2023-01-01T01:38:39;1999.90;;;999.90;;
22378;SDS011;11357;49.990;7.370;2023-01-01T01:41:05;1793.87;;;820.57;;
22378;SDS011;11357;49.990;7.370;2023-01-01T01:45:58;1966.73;;;813.53;;
22378;SDS011;11357;49.990;7.370;2023-01-01T01:48:36;1999.90;;;947.77;;
22378;SDS011;11357;49.990;7.370;2023-01-01T01:51:06;1070.93;;;752.93;;
22378;SDS011;11357;49.990;7.370;2023-01-01T01:53:32;467.10;;;426.30;;
22378;SDS011;11357;49.990;7.370;2023-01-01T01:56:03;277.27;;;257.43;;
22378;SDS011;11357;49.990;7.370;2023-01-01T01:58:32;187.93;;;175.20;;
22378;SDS011;11357;49.990;7.370;2023-01-01T02:00:59;36.73;;;34.30;;
22378;SDS011;11357;49.990;7.370;2023-01-01T02:03:26;15.93;;;14.67;;
22378;SDS011;11357;49.990;7.370;2023-01-01T02:06:01;65.70;;;61.33;;
22378;SDS011;11357;49.990;7.370;2023-01-01T02:08:27;42.23;;;39.23;;
22378;SDS011;11357;49.990;7.370;2023-01-01T02:10:54;23.43;;;21.63;;
22378;SDS011;11357;49.990;7.370;2023-01-01T02:13:20;93.30;;;84.00;;
22378;SDS011;11357;49.990;7.370;2023-01-01T02:18:51;27.80;;;25.17;;
22378;SDS011;11357;49.990;7.370;2023-01-01T02:27:27;70.37;;;66.40;;
22378;SDS011;11357;49.990;7.370;2023-01-01T02:30:08;106.73;;;98.00;;
22378;SDS011;11357;49.990;7.370;2023-01-01T02:32:36;246.77;;;230.57;;
22378;SDS011;11357;49.990;7.370;2023-01-01T02:40:35;186.70;;;174.60;;
22378;SDS011;11357;49.990;7.370;2023-01-01T02:43:05;189.03;;;178.13;;
22378;SDS011;11357;49.990;7.370;2023-01-01T02:45:31;76.57;;;71.93;;
22378;SDS011;11357;49.990;7.370;2023-01-01T02:48:01;54.97;;;51.70;;
22378;SDS011;11357;49.990;7.370;2023-01-01T02:50:28;37.53;;;35.07;;
22378;SDS011;11357;49.990;7.370;2023-01-01T03:09:53;132.70;;;124.80;;
22378;SDS011;11357;49.990;7.370;2023-01-01T03:12:29;108.40;;;101.47;;
22378;SDS011;11357;49.990;7.370;2023-01-01T03:20:33;62.90;;;59.30;;
22378;SDS011;11357;49.990;7.370;2023-01-01T03:23:05;18.53;;;17.17;;
22378;SDS011;11357;49.990;7.370;2023-01-01T03:25:35;106.83;;;99.97;;
22378;SDS011;11357;49.990;7.370;2023-01-01T03:28:08;205.57;;;193.97;;
22378;SDS011;11357;49.990;7.370;2023-01-01T03:30:57;447.50;;;416.10;;
22378;SDS011;11357;49.990;7.370;2023-01-01T03:33:28;439.67;;;409.83;;
22378;SDS011;11357;49.990;7.370;2023-01-01T03:38:24;434.27;;;401.60;;
22378;SDS011;11357;49.990;7.370;2023-01-01T03:40:59;353.47;;;330.83;;
22378;SDS011;11357;49.990;7.370;2023-01-01T03:43:43;405.47;;;374.57;;
22378;SDS011;11357;49.990;7.370;2023-01-01T03:46:15;582.63;;;534.90;;
22378;SDS011;11357;49.990;7.370;2023-01-01T03:48:45;678.47;;;621.77;;
22378;SDS011;11357;49.990;7.370;2023-01-01T03:54:01;673.00;;;616.67;;
22378;SDS011;11357;49.990;7.370;2023-01-01T03:56:43;513.50;;;467.37;;
22378;SDS011;11357;49.990;7.370;2023-01-01T03:59:14;629.37;;;568.33;;
22378;SDS011;11357;49.990;7.370;2023-01-01T04:01:59;475.53;;;439.50;;
22378;SDS011;11357;49.990;7.370;2023-01-01T04:04:27;602.40;;;550.70;;
22378;SDS011;11357;49.990;7.370;2023-01-01T04:06:53;552.43;;;505.73;;
22378;SDS011;11357;49.990;7.370;2023-01-01T04:09:22;504.50;;;460.00;;
22378;SDS011;11357;49.990;7.370;2023-01-01T04:11:53;636.00;;;577.17;;
22378;SDS011;11357;49.990;7.370;2023-01-01T04:14:37;499.67;;;452.87;;
22378;SDS011;11357;49.990;7.370;2023-01-01T04:17:05;779.67;;;707.37;;
22378;SDS011;11357;49.990;7.370;2023-01-01T04:19:33;585.00;;;539.13;;
22378;SDS011;11357;49.990;7.370;2023-01-01T04:21:59;993.20;;;819.63;;
22378;SDS011;11357;49.990;7.370;2023-01-01T04:24:25;936.60;;;771.40;;
22378;SDS011;11357;49.990;7.370;2023-01-01T04:26:51;735.37;;;639.37;;
22378;SDS011;11357;49.990;7.370;2023-01-01T04:29:17;857.27;;;772.57;;
22378;SDS011;11357;49.990;7.370;2023-01-01T04:31:43;702.47;;;641.80;;
22378;SDS011;11357;49.990;7.370;2023-01-01T04:34:09;500.03;;;457.00;;
22378;SDS011;11357;49.990;7.370;2023-01-01T04:36:35;824.00;;;729.73;;
22378;SDS011;11357;49.990;7.370;2023-01-01T04:39:01;1468.03;;;914.37;;
22378;SDS011;11357;49.990;7.370;2023-01-01T04:41:27;1681.17;;;951.13;;
22378;SDS011;11357;49.990;7.370;2023-01-01T04:43:52;1004.43;;;826.63;;
22378;SDS011;11357;49.990;7.370;2023-01-01T04:46:18;788.83;;;717.73;;
22378;SDS011;11357;49.990;7.370;2023-01-01T04:48:45;583.37;;;525.23;;
22378;SDS011;11357;49.990;7.370;2023-01-01T04:51:11;1172.93;;;847.20;;
22378;SDS011;11357;49.990;7.370;2023-01-01T04:53:38;1171.13;;;817.00;;
22378;SDS011;11357;49.990;7.370;2023-01-01T04:56:09;1271.53;;;855.27;;
22378;SDS011;11357;49.990;7.370;2023-01-01T04:58:37;901.50;;;706.53;;
22378;SDS011;11357;49.990;7.370;2023-01-01T05:01:04;1766.97;;;924.37;;
22378;SDS011;11357;49.990;7.370;2023-01-01T05:03:31;475.43;;;426.90;;
22378;SDS011;11357;49.990;7.370;2023-01-01T05:06:04;1482.80;;;923.77;;
22378;SDS011;11357;49.990;7.370;2023-01-01T05:08:33;1215.00;;;871.30;;
22378;SDS011;11357;49.990;7.370;2023-01-01T05:11:01;457.30;;;385.60;;
22378;SDS011;11357;49.990;7.370;2023-01-01T05:13:35;1625.00;;;801.57;;
22378;SDS011;11357;49.990;7.370;2023-01-01T05:16:05;766.47;;;658.13;;
22378;SDS011;11357;49.990;7.370;2023-01-01T05:18:32;891.63;;;764.83;;
22378;SDS011;11357;49.990;7.370;2023-01-01T05:20:59;1670.47;;;925.07;;
22378;SDS011;11357;49.990;7.370;2023-01-01T05:23:29;1685.47;;;931.87;;
22378;SDS011;11357;49.990;7.370;2023-01-01T05:25:55;1165.13;;;815.80;;
22378;SDS011;11357;49.990;7.370;2023-01-01T05:28:21;1156.20;;;728.13;;
22378;SDS011;11357;49.990;7.370;2023-01-01T05:30:48;469.80;;;427.30;;
22378;SDS011;11357;49.990;7.370;2023-01-01T05:33:14;821.10;;;669.27;;
22378;SDS011;11357;49.990;7.370;2023-01-01T05:35:40;1313.37;;;791.07;;
22378;SDS011;11357;49.990;7.370;2023-01-01T05:38:05;627.03;;;565.93;;
22378;SDS011;11357;49.990;7.370;2023-01-01T05:40:31;380.63;;;340.50;;
22378;SDS011;11357;49.990;7.370;2023-01-01T05:42:56;1701.50;;;905.93;;
22378;SDS011;11357;49.990;7.370;2023-01-01T05:45:22;1221.13;;;663.43;;
22378;SDS011;11357;49.990;7.370;2023-01-01T05:47:48;1226.30;;;746.43;;
22378;SDS011;11357;49.990;7.370;2023-01-01T05:50:13;889.67;;;665.37;;
22378;SDS011;11357;49.990;7.370;2023-01-01T05:52:39;1284.63;;;786.40;;
22378;SDS011;11357;49.990;7.370;2023-01-01T05:55:05;622.23;;;532.37;;
22378;SDS011;11357;49.990;7.370;2023-01-01T05:57:31;1984.10;;;993.87;;
22378;SDS011;11357;49.990;7.370;2023-01-01T05:59:56;1531.47;;;905.13;;
22378;SDS011;11357;49.990;7.370;2023-01-01T06:02:22;979.37;;;744.37;;
22378;SDS011;11357;49.990;7.370;2023-01-01T06:04:48;1808.97;;;976.00;;
22378;SDS011;11357;49.990;7.370;2023-01-01T06:07:13;1224.60;;;890.43;;
22378;SDS011;11357;49.990;7.370;2023-01-01T06:09:39;993.13;;;752.60;;
22378;SDS011;11357;49.990;7.370;2023-01-01T06:12:05;1296.50;;;807.50;;
22378;SDS011;11357;49.990;7.370;2023-01-01T06:14:31;664.20;;;602.83;;
22378;SDS011;11357;49.990;7.370;2023-01-01T06:16:56;1337.70;;;672.77;;
22378;SDS011;11357;49.990;7.370;2023-01-01T06:19:22;898.97;;;754.67;;
22378;SDS011;11357;49.990;7.370;2023-01-01T06:21:48;1486.50;;;901.30;;
22378;SDS011;11357;49.990;7.370;2023-01-01T06:24:14;1779.20;;;948.70;;
22378;SDS011;11357;49.990;7.370;2023-01-01T06:26:39;1534.07;;;846.03;;
22378;SDS011;11357;49.990;7.370;2023-01-01T06:29:05;1396.37;;;924.43;;
22378;SDS011;11357;49.990;7.370;2023-01-01T06:31:31;543.70;;;423.17;;
22378;SDS011;11357;49.990;7.370;2023-01-01T06:33:57;852.30;;;706.63;;
22378;SDS011;11357;49.990;7.370;2023-01-01T06:36:23;1111.10;;;805.87;;
22378;SDS011;11357;49.990;7.370;2023-01-01T06:38:51;452.73;;;402.20;;
22378;SDS011;11357;49.990;7.370;2023-01-01T06:41:19;865.53;;;650.80;;
22378;SDS011;11357;49.990;7.370;2023-01-01T06:43:47;1434.77;;;914.40;;
22378;SDS011;11357;49.990;7.370;2023-01-01T06:46:15;820.40;;;710.70;;
22378;SDS011;11357;49.990;7.370;2023-01-01T06:48:41;149.77;;;135.90;;
22378;SDS011;11357;49.990;7.370;2023-01-01T06:51:13;1263.67;;;926.33;;
22378;SDS011;11357;49.990;7.370;2023-01-01T06:53:43;1053.10;;;728.17;;
22378;SDS011;11357;49.990;7.370;2023-01-01T06:56:10;240.37;;;220.03;;
22378;SDS011;11357;49.990;7.370;2023-01-01T06:58:35;1083.50;;;868.37;;
22378;SDS011;11357;49.990;7.370;2023-01-01T07:01:02;1347.17;;;874.60;;
22378;SDS011;11357;49.990;7.370;2023-01-01T07:03:29;1121.23;;;713.87;;
22378;SDS011;11357;49.990;7.370;2023-01-01T07:05:54;1260.20;;;764.40;;
22378;SDS011;11357;49.990;7.370;2023-01-01T07:08:20;1756.47;;;829.50;;
22378;SDS011;11357;49.990;7.370;2023-01-01T07:10:46;1999.90;;;998.13;;
22378;SDS011;11357;49.990;7.370;2023-01-01T07:13:11;1995.00;;;954.53;;
22378;SDS011;11357;49.990;7.370;2023-01-01T07:15:37;1838.60;;;981.10;;
22378;SDS011;11357;49.990;7.370;2023-01-01T07:18:03;1999.90;;;999.90;;
22378;SDS011;11357;49.990;7.370;2023-01-01T07:20:28;1491.40;;;934.47;;
22378;SDS011;11357;49.990;7.370;2023-01-01T07:22:54;659.77;;;449.40;;
22378;SDS011;11357;49.990;7.370;2023-01-01T07:25:20;1683.33;;;928.43;;
22378;SDS011;11357;49.990;7.370;2023-01-01T07:27:45;1982.70;;;986.30;;
22378;SDS011;11357;49.990;7.370;2023-01-01T07:30:11;1257.33;;;790.30;;
22378;SDS011;11357;49.990;7.370;2023-01-01T07:32:36;1924.33;;;938.63;;
22378;SDS011;11357;49.990;7.370;2023-01-01T07:35:02;1985.80;;;955.13;;
22378;SDS011;11357;49.990;7.370;2023-01-01T07:37:28;1999.90;;;993.33;;
22378;SDS011;11357;49.990;7.370;2023-01-01T07:39:54;1848.63;;;947.23;;
22378;SDS011;11357;49.990;7.370;2023-01-01T07:42:19;1998.87;;;938.43;;
22378;SDS011;11357;49.990;7.370;2023-01-01T07:44:45;1540.70;;;763.93;;
22378;SDS011;11357;49.990;7.370;2023-01-01T07:49:47;1629.37;;;949.27;;
22378;SDS011;11357;49.990;7.370;2023-01-01T07:52:13;1626.67;;;967.70;;
22378;SDS011;11357;49.990;7.370;2023-01-01T07:54:38;1507.80;;;839.17;;
22378;SDS011;11357;49.990;7.370;2023-01-01T07:57:04;1999.90;;;988.83;;
22378;SDS011;11357;49.990;7.370;2023-01-01T07:59:29;1807.90;;;959.50;;
22378;SDS011;11357;49.990;7.370;2023-01-01T08:01:55;1999.90;;;999.90;;
22378;SDS011;11357;49.990;7.370;2023-01-01T08:04:21;1055.00;;;711.47;;
22378;SDS011;11357;49.990;7.370;2023-01-01T08:06:47;1999.90;;;999.90;;
22378;SDS011;11357;49.990;7.370;2023-01-01T08:09:12;1999.90;;;964.57;;
22378;SDS011;11357;49.990;7.370;2023-01-01T08:11:38;1986.73;;;937.73;;
22378;SDS011;11357;49.990;7.370;2023-01-01T08:14:04;944.30;;;699.73;;
22378;SDS011;11357;49.990;7.370;2023-01-01T08:16:29;1272.63;;;861.13;;
22378;SDS011;11357;49.990;7.370;2023-01-01T08:18:55;1822.70;;;888.67;;
22378;SDS011;11357;49.990;7.370;2023-01-01T08:21:21;1953.47;;;921.13;;
22378;SDS011;11357;49.990;7.370;2023-01-01T08:23:47;1684.07;;;941.40;;
22378;SDS011;11357;49.990;7.370;2023-01-01T08:26:13;1999.90;;;993.97;;
22378;SDS011;11357;49.990;7.370;2023-01-01T08:28:40;1997.40;;;980.13;;
22378;SDS011;11357;49.990;7.370;2023-01-01T08:31:06;1999.90;;;999.90;;
22378;SDS011;11357;49.990;7.370;2023-01-01T08:33:32;1827.63;;;966.83;;
22378;SDS011;11357;49.990;7.370;2023-01-01T08:35:57;1964.60;;;953.43;;
22378;SDS011;11357;49.990;7.370;2023-01-01T08:38:24;1896.90;;;955.00;;
22378;SDS011;11357;49.990;7.370;2023-01-01T08:40:49;1809.60;;;877.60;;
22378;SDS011;11357;49.990;7.370;2023-01-01T08:43:15;1999.90;;;999.90;;
22378;SDS011;11357;49.990;7.370;2023-01-01T08:45:41;1999.90;;;924.40;;
22378;SDS011;11357;49.990;7.370;2023-01-01T08:48:06;1271.50;;;693.80;;
22378;SDS011;11357;49.990;7.370;2023-01-01T08:50:32;1999.90;;;964.50;;
22378;SDS011;11357;49.990;7.370;2023-01-01T08:52:58;1999.90;;;963.03;;
22378;SDS011;11357;49.990;7.370;2023-01-01T08:55:24;1999.90;;;999.53;;
22378;SDS011;11357;49.990;7.370;2023-01-01T08:57:49;1999.90;;;996.97;;
22378;SDS011;11357;49.990;7.370;2023-01-01T09:00:15;1999.90;;;966.87;;
22378;SDS011;11357;49.990;7.370;2023-01-01T09:02:42;1999.90;;;996.57;;
22378;SDS011;11357;49.990;7.370;2023-01-01T09:05:08;1999.90;;;954.63;;
22378;SDS011;11357;49.990;7.370;2023-01-01T09:07:34;1999.90;;;945.10;;
22378;SDS011;11357;49.990;7.370;2023-01-01T09:09:59;1894.63;;;979.90;;
22378;SDS011;11357;49.990;7.370;2023-01-01T09:12:25;1118.97;;;720.40;;
22378;SDS011;11357;49.990;7.370;2023-01-01T09:14:51;898.13;;;784.57;;
22378;SDS011;11357;49.990;7.370;2023-01-01T09:17:16;1062.07;;;767.50;;
22378;SDS011;11357;49.990;7.370;2023-01-01T09:19:42;814.07;;;732.73;;
22378;SDS011;11357;49.990;7.370;2023-01-01T09:22:11;1219.37;;;894.27;;
22378;SDS011;11357;49.990;7.370;2023-01-01T09:24:37;1048.70;;;799.20;;
22378;SDS011;11357;49.990;7.370;2023-01-01T09:27:03;1954.00;;;969.73;;
22378;SDS011;11357;49.990;7.370;2023-01-01T09:29:29;1396.90;;;896.07;;
22378;SDS011;11357;49.990;7.370;2023-01-01T09:31:55;886.03;;;738.70;;
22378;SDS011;11357;49.990;7.370;2023-01-01T09:34:20;1936.67;;;959.20;;
22378;SDS011;11357;49.990;7.370;2023-01-01T09:36:46;1924.90;;;952.33;;
22378;SDS011;11357;49.990;7.370;2023-01-01T09:39:12;1908.60;;;929.80;;
22378;SDS011;11357;49.990;7.370;2023-01-01T09:47:20;1256.73;;;908.43;;
22378;SDS011;11357;49.990;7.370;2023-01-01T09:49:53;1093.77;;;856.63;;
22378;SDS011;11357;49.990;7.370;2023-01-01T09:52:24;1492.73;;;936.17;;
22378;SDS011;11357;49.990;7.370;2023-01-01T09:54:59;948.73;;;745.33;;
22378;SDS011;11357;49.990;7.370;2023-01-01T09:57:30;838.70;;;725.63;;
22378;SDS011;11357;49.990;7.370;2023-01-01T09:59:56;908.30;;;804.13;;
22378;SDS011;11357;49.990;7.370;2023-01-01T10:10:49;1957.57;;;973.43;;
22378;SDS011;11357;49.990;7.370;2023-01-01T10:18:36;1210.07;;;910.73;;
22378;SDS011;11357;49.990;7.370;2023-01-01T10:23:49;909.73;;;808.80;;
22378;SDS011;11357;49.990;7.370;2023-01-01T10:26:17;1170.70;;;875.70;;
22378;SDS011;11357;49.990;7.370;2023-01-01T10:29:20;665.90;;;592.23;;
22378;SDS011;11357;49.990;7.370;2023-01-01T10:31:46;722.07;;;658.03;;
22378;SDS011;11357;49.990;7.370;2023-01-01T10:34:16;844.37;;;746.90;;
22378;SDS011;11357;49.990;7.370;2023-01-01T10:36:52;1023.33;;;846.07;;
22378;SDS011;11357;49.990;7.370;2023-01-01T10:39:20;1078.27;;;868.13;;
22378;SDS011;11357;49.990;7.370;2023-01-01T10:41:47;967.97;;;829.50;;
22378;SDS011;11357;49.990;7.370;2023-01-01T10:44:14;1484.43;;;923.47;;
22378;SDS011;11357;49.990;7.370;2023-01-01T10:46:48;848.57;;;746.07;;
22378;SDS011;11357;49.990;7.370;2023-01-01T10:49:17;652.13;;;589.00;;
22378;SDS011;11357;49.990;7.370;2023-01-01T10:51:47;724.33;;;654.27;;
22378;SDS011;11357;49.990;7.370;2023-01-01T10:56:43;725.53;;;648.10;;
22378;SDS011;11357;49.990;7.370;2023-01-01T10:59:52;993.57;;;824.13;;
22378;SDS011;11357;49.990;7.370;2023-01-01T11:02:13;566.43;;;518.50;;
22378;SDS011;11357;49.990;7.370;2023-01-01T11:04:52;628.13;;;581.60;;
22378;SDS011;11357;49.990;7.370;2023-01-01T11:07:40;655.77;;;585.97;;
22378;SDS011;11357;49.990;7.370;2023-01-01T11:10:14;894.57;;;782.20;;
22378;SDS011;11357;49.990;7.370;2023-01-01T11:12:46;712.80;;;641.90;;
22378;SDS011;11357;49.990;7.370;2023-01-01T11:18:14;595.20;;;544.03;;
22378;SDS011;11357;49.990;7.370;2023-01-01T11:20:52;867.30;;;776.23;;
22378;SDS011;11357;49.990;7.370;2023-01-01T11:28:27;957.33;;;793.47;;
22378;SDS011;11357;49.990;7.370;2023-01-01T11:36:24;1575.37;;;893.77;;
22378;SDS011;11357;49.990;7.370;2023-01-01T11:41:51;1018.40;;;839.50;;
22378;SDS011;11357;49.990;7.370;2023-01-01T11:44:37;855.30;;;644.57;;
22378;SDS011;11357;49.990;7.370;2023-01-01T11:47:18;824.67;;;737.83;;
22378;SDS011;11357;49.990;7.370;2023-01-01T11:52:41;1640.70;;;938.40;;
22378;SDS011;11357;49.990;7.370;2023-01-01T11:55:10;1999.90;;;999.90;;
22378;SDS011;11357;49.990;7.370;2023-01-01T11:57:40;634.10;;;543.93;;
22378;SDS011;11357;49.990;7.370;2023-01-01T12:00:13;1999.90;;;999.90;;
22378;SDS011;11357;49.990;7.370;2023-01-01T12:02:51;1999.90;;;999.90;;
22378;SDS011;11357;49.990;7.370;2023-01-01T12:05:25;1999.90;;;999.90;;
22378;SDS011;11357;49.990;7.370;2023-01-01T12:08:05;1999.90;;;959.33;;
22378;SDS011;11357;49.990;7.370;2023-01-01T12:10:50;1999.90;;;999.90;;
22378;SDS011;11357;49.990;7.370;2023-01-01T12:13:22;1999.90;;;999.90;;
22378;SDS011;11357;49.990;7.370;2023-01-01T12:15:55;1999.90;;;927.03;;
22378;SDS011;11357;49.990;7.370;2023-01-01T12:23:50;1340.97;;;837.07;;
22378;SDS011;11357;49.990;7.370;2023-01-01T12:29:12;1999.90;;;999.90;;
22378;SDS011;11357;49.990;7.370;2023-01-01T12:43:01;1999.90;;;999.90;;
22378;SDS011;11357;49.990;7.370;2023-01-01T12:46:05;1999.90;;;976.73;;
22378;SDS011;11357;49.990;7.370;2023-01-01T12:56:16;1999.90;;;999.90;;
22378;SDS011;11357;49.990;7.370;2023-01-01T12:59:08;1999.90;;;999.90;;
22378;SDS011;11357;49.990;7.370;2023-01-01T13:01:38;1999.90;;;999.90;;
22378;SDS011;11357;49.990;7.370;2023-01-01T13:04:11;1999.90;;;999.90;;
22378;SDS011;11357;49.990;7.370;2023-01-01T13:06:55;1999.90;;;999.90;;
22378;SDS011;11357;49.990;7.370;2023-01-01T13:09:32;1999.90;;;999.90;;
22378;SDS011;11357;49.990;7.370;2023-01-01T13:12:03;1999.90;;;980.07;;
22378;SDS011;11357;49.990;7.370;2023-01-01T13:14:35;1999.90;;;985.37;;
22378;SDS011;11357;49.990;7.370;2023-01-01T13:17:16;1999.90;;;999.90;;
22378;SDS011;11357;49.990;7.370;2023-01-01T13:19:42;1999.90;;;999.90;;
22378;SDS011;11357;49.990;7.370;2023-01-01T13:38:54;1999.90;;;987.17;;
22378;SDS011;11357;49.990;7.370;2023-01-01T13:49:32;1999.90;;;987.03;;
22378;SDS011;11357;49.990;7.370;2023-01-01T14:00:33;1999.90;;;999.90;;
22378;SDS011;11357;49.990;7.370;2023-01-01T14:03:22;1999.90;;;999.90;;
22378;SDS011;11357;49.990;7.370;2023-01-01T14:05:58;1999.90;;;999.90;;
22378;SDS011;11357;49.990;7.370;2023-01-01T14:08:29;1999.90;;;999.90;;
22378;SDS011;11357;49.990;7.370;2023-01-01T14:10:59;1999.90;;;995.77;;
22378;SDS011;11357;49.990;7.370;2023-01-01T14:13:27;1979.07;;;995.83;;
22378;SDS011;11357;49.990;7.370;2023-01-01T14:15:59;1943.73;;;999.90;;
22378;SDS011;11357;49.990;7.370;2023-01-01T14:18:30;1999.90;;;999.90;;
22378;SDS011;11357;49.990;7.370;2023-01-01T14:21:11;1999.90;;;988.93;;
22378;SDS011;11357;49.990;7.370;2023-01-01T14:23:49;1999.90;;;997.90;;
22378;SDS011;11357;49.990;7.370;2023-01-01T14:26:15;1999.90;;;999.90;;
22378;SDS011;11357;49.990;7.370;2023-01-01T14:28:43;1999.90;;;999.90;;
22378;SDS011;11357;49.990;7.370;2023-01-01T14:31:14;1999.90;;;999.90;;
22378;SDS011;11357;49.990;7.370;2023-01-01T14:33:42;1999.90;;;999.90;;
22378;SDS011;11357;49.990;7.370;2023-01-01T14:36:24;1999.90;;;999.90;;
22378;SDS011;11357;49.990;7.370;2023-01-01T14:38:52;1999.90;;;999.90;;
22378;SDS011;11357;49.990;7.370;2023-01-01T14:41:36;1999.90;;;999.90;;
22378;SDS011;11357;49.990;7.370;2023-01-01T14:44:14;1999.90;;;999.90;;
22378;SDS011;11357;49.990;7.370;2023-01-01T14:46:46;1999.90;;;999.90;;
22378;SDS011;11357;49.990;7.370;2023-01-01T14:49:17;1999.90;;;999.90;;
22378;SDS011;11357;49.990;7.370;2023-01-01T14:52:00;1999.90;;;999.90;;
22378;SDS011;11357;49.990;7.370;2023-01-01T14:54:32;1999.90;;;999.90;;
22378;SDS011;11357;49.990;7.370;2023-01-01T14:57:02;1999.90;;;999.90;;
22378;SDS011;11357;49.990;7.370;2023-01-01T14:59:33;1999.90;;;999.90;;
22378;SDS011;11357;49.990;7.370;2023-01-01T15:04:36;1999.90;;;999.90;;
22378;SDS011;11357;49.990;7.370;2023-01-01T15:07:01;1999.90;;;999.90;;
22378;SDS011;11357;49.990;7.370;2023-01-01T15:09:29;1999.90;;;999.90;;
22378;SDS011;11357;49.990;7.370;2023-01-01T15:11:56;1999.90;;;923.40;;
22378;SDS011;11357;49.990;7.370;2023-01-01T15:14:35;1999.90;;;999.90;;
22378;SDS011;11357;49.990;7.370;2023-01-01T15:17:05;1999.90;;;999.90;;
22378;SDS011;11357;49.990;7.370;2023-01-01T15:19:33;1999.90;;;999.90;;
22378;SDS011;11357;49.990;7.370;2023-01-01T15:21:59;1999.90;;;999.90;;
22378;SDS011;11357;49.990;7.370;2023-01-01T15:24:26;1999.90;;;999.90;;
22378;SDS011;11357;49.990;7.370;2023-01-01T15:27:00;1999.90;;;999.90;;
22378;SDS011;11357;49.990;7.370;2023-01-01T15:29:30;1999.90;;;999.90;;
22378;SDS011;11357;49.990;7.370;2023-01-01T15:32:05;1999.90;;;999.90;;
22378;SDS011;11357;49.990;7.370;2023-01-01T15:34:34;1999.90;;;999.90;;
22378;SDS011;11357;49.990;7.370;2023-01-01T15:37:44;1999.90;;;999.90;;
22378;SDS011;11357;49.990;7.370;2023-01-01T15:45:26;1999.90;;;999.90;;
22378;SDS011;11357;49.990;7.370;2023-01-01T15:58:33;1999.90;;;999.90;;
22378;SDS011;11357;49.990;7.370;2023-01-01T16:01:01;1999.90;;;999.90;;
22378;SDS011;11357;49.990;7.370;2023-01-01T16:03:36;1999.90;;;999.90;;
22378;SDS011;11357;49.990;7.370;2023-01-01T16:06:04;1999.90;;;999.90;;
22378;SDS011;11357;49.990;7.370;2023-01-01T16:08:30;1999.90;;;999.90;;
22378;SDS011;11357;49.990;7.370;2023-01-01T16:10:55;1999.90;;;999.90;;
22378;SDS011;11357;49.990;7.370;2023-01-01T16:13:21;1999.90;;;999.90;;
22378;SDS011;11357;49.990;7.370;2023-01-01T16:15:56;1999.90;;;999.90;;
22378;SDS011;11357;49.990;7.370;2023-01-01T16:18:30;1999.90;;;999.90;;
22378;SDS011;11357;49.990;7.370;2023-01-01T16:20:58;1999.90;;;999.90;;
22378;SDS011;11357;49.990;7.370;2023-01-01T16:23:25;1999.90;;;999.90;;
22378;SDS011;11357;49.990;7.370;2023-01-01T16:25:51;1999.90;;;999.90;;
22378;SDS011;11357;49.990;7.370;2023-01-01T16:28:16;1999.90;;;999.90;;
22378;SDS011;11357;49.990;7.370;2023-01-01T16:30:42;1999.90;;;999.90;;
22378;SDS011;11357;49.990;7.370;2023-01-01T16:33:14;1999.90;;;999.90;;
22378;SDS011;11357;49.990;7.370;2023-01-01T16:35:42;1999.90;;;999.90;;
22378;SDS011;11357;49.990;7.370;2023-01-01T16:38:08;1999.90;;;999.90;;
22378;SDS011;11357;49.990;7.370;2023-01-01T16:40:34;1999.90;;;999.90;;
22378;SDS011;11357;49.990;7.370;2023-01-01T16:43:00;1999.90;;;999.90;;
22378;SDS011;11357;49.990;7.370;2023-01-01T16:45:25;1999.90;;;999.90;;
22378;SDS011;11357;49.990;7.370;2023-01-01T16:47:51;1999.90;;;999.90;;
22378;SDS011;11357;49.990;7.370;2023-01-01T16:50:18;1721.87;;;784.93;;
22378;SDS011;11357;49.990;7.370;2023-01-01T16:52:44;1728.10;;;794.47;;